LFHP/LPY METAR and TAF weather

Enter ICAO airport designator
Station Type Date Time Source
LFHP METAR 2020/08/09 19:00 UTC NOAA

LFHP 091900Z AUTO 34005KT 280V010 CAVOK 21/15 Q1018


Station Type Date Time Source
LFHP Decoded METAR 2020/08/09 19:00 UTC NOAA

Le Puy, France (LFHP) 45-05N 003-46E 833M
Aug 09, 2020 - 03:00 PM EDT / 2020.08.09 1900 UTC
Wind: from the NNW (340 degrees) at 6 MPH (5 KT) (direction variable):0
Visibility: greater than 7 mile(s):0
Temperature: 69 F (21 C)
Dew Point: 59 F (15 C)
Relative Humidity: 68%
Pressure (altimeter): 30.06 in. Hg (1018 hPa)
ob: LFHP 091900Z AUTO 34005KT 280V010 CAVOK 21/15 Q1018
cycle: 19

Station Type Date Time Source
LFHP TAF UTC NOAA

Error!

Example: see airport list